KLWB/LWB METAR and TAF weather

Enter ICAO airport designator
Station Type Date Time Source
KLWB METAR 2020/09/25 07:15 UTC NOAA

KLWB 250715Z AUTO 00000KT 10SM SCT029 BKN055 OVC065 13/13 A3010 RMK AO2 T01340134


Station Type Date Time Source
KLWB Decoded METAR 2020/09/25 07:15 UTC NOAA

Lewisburg / Greenbrier, WV, United States (KLWB) 37-52N 080-24W
Sep 25, 2020 - 03:15 AM EDT / 2020.09.25 0715 UTC
Wind: Calm:0
Visibility: 10 mile(s):0
Sky conditions: overcast
Temperature: 56.1 F (13.4 C)
Dew Point: 56.1 F (13.4 C)
Relative Humidity: 100%
Pressure (altimeter): 30.1 in. Hg (1019 hPa)
ob: KLWB 250715Z AUTO 00000KT 10SM SCT029 BKN055 OVC065 13/13 A3010 RMK AO2 T01340134
cycle: 7

Station Type Date Time Source
KLWB TAF 2020/09/25 06:48 UTC NOAA

TAF KLWB 250545Z 2506/2606 00000KT 4SM BR OVC100
TEMPO 2506/2509 1SM -RA BR OVC001
FM250900 00000KT 4SM BR OVC045
FM251200 00000KT 5SM -RA BR OVC013
FM251500 VRB04KT 6SM -RA OVC016
FM251800 10005KT P6SM OVC012
FM260000 VRB02KT P6SM OVC006
FM260200 VRB02KT 5SM BR BKN006

Example: see airport list